createdAt,value
2022-09-23T00:02:12.422Z,6.30
2022-09-23T00:05:15.967Z,6.30
2022-09-23T00:08:19.097Z,6.50
2022-09-23T00:11:26.592Z,5.73
2022-09-23T00:14:29.712Z,6.55
2022-09-23T00:17:33.360Z,5.90
2022-09-23T00:20:37.777Z,6.43
2022-09-23T00:23:42.856Z,6.40
2022-09-23T00:26:46.023Z,5.67
2022-09-23T00:29:49.385Z,5.68
2022-09-23T00:32:53.092Z,5.85
2022-09-23T00:36:04.013Z,6.30
2022-09-23T00:39:07.148Z,6.07
2022-09-23T00:42:16.355Z,6.00
2022-09-23T00:45:20.052Z,5.70
2022-09-23T00:48:23.230Z,5.90
2022-09-23T00:51:37.119Z,6.13
2022-09-23T00:54:41.360Z,5.50
2022-09-23T00:57:47.345Z,5.60
2022-09-23T01:00:50.559Z,5.75
2022-09-23T01:03:55.593Z,5.45
2022-09-23T01:06:58.799Z,6.18
2022-09-23T01:10:02.984Z,5.50
2022-09-23T01:13:42.902Z,5.73
2022-09-23T01:17:08.879Z,5.63
2022-09-23T01:20:24.359Z,5.72
2022-09-23T01:23:49.259Z,5.68
2022-09-23T01:27:32.737Z,6.22
2022-09-23T01:30:45.043Z,5.60
2022-09-23T01:34:06.156Z,5.50
2022-09-23T01:37:26.356Z,4.97
2022-09-23T01:40:52.066Z,5.53
2022-09-23T01:44:10.057Z,5.88
2022-09-23T01:47:20.859Z,5.53
2022-09-23T01:50:48.547Z,5.35
2022-09-23T01:53:58.114Z,5.97
2022-09-23T01:57:07.007Z,5.97
2022-09-23T02:00:14.224Z,6.18
2022-09-23T02:03:27.821Z,6.00
2022-09-23T02:06:42.047Z,5.97
2022-09-23T02:09:53.952Z,5.57
2022-09-23T02:13:04.210Z,6.10
2022-09-23T02:16:26.233Z,6.55
2022-09-23T02:19:47.886Z,6.70
2022-09-23T02:23:14.805Z,6.68
2022-09-23T02:26:59.345Z,6.82
2022-09-23T02:30:08.971Z,7.22
2022-09-23T02:33:39.371Z,7.43
2022-09-23T02:37:15.508Z,7.43
2022-09-23T02:40:38.759Z,8.10
2022-09-23T02:44:00.791Z,8.48
2022-09-23T02:47:04.027Z,8.18
2022-09-23T02:50:09.320Z,8.23
2022-09-23T02:53:12.480Z,7.77
2022-09-23T02:56:20.974Z,7.45
2022-09-23T02:59:24.716Z,7.50
2022-09-23T03:03:03.022Z,7.82
2022-09-23T03:06:29.037Z,6.78
2022-09-23T03:09:37.702Z,6.73
2022-09-23T03:12:41.168Z,6.40
2022-09-23T03:16:11.148Z,6.70
2022-09-23T03:19:34.648Z,7.60
2022-09-23T03:22:47.014Z,9.07
2022-09-23T03:25:54.207Z,7.03
2022-09-23T03:28:58.739Z,7.32
2022-09-23T03:32:02.479Z,9.88
2022-09-23T03:35:06.625Z,8.50
2022-09-23T03:38:17.316Z,7.53
2022-09-23T03:41:31.243Z,7.23
2022-09-23T03:44:39.325Z,6.85
2022-09-23T03:47:42.461Z,7.30
2022-09-23T03:50:45.577Z,7.03
2022-09-23T03:53:48.668Z,7.15
2022-09-23T03:56:51.991Z,7.17
2022-09-23T03:59:55.044Z,7.80
2022-09-23T04:02:58.224Z,7.53
2022-09-23T04:06:01.568Z,7.25
2022-09-23T04:09:05.071Z,7.10
2022-09-23T04:12:11.800Z,7.23
2022-09-23T04:15:15.028Z,7.07
2022-09-23T04:18:18.528Z,7.85
2022-09-23T04:21:22.115Z,7.80
2022-09-23T04:24:25.259Z,7.78
2022-09-23T04:27:28.376Z,7.53
2022-09-23T04:30:31.467Z,7.15
2022-09-23T04:33:39.935Z,7.57
2022-09-23T04:36:47.380Z,7.70
2022-09-23T04:39:50.607Z,7.03
2022-09-23T04:42:53.723Z,7.60
2022-09-23T04:46:02.356Z,7.65
2022-09-23T04:49:06.831Z,8.15
2022-09-23T04:52:09.991Z,8.20
2022-09-23T04:55:13.047Z,8.27
2022-09-23T04:58:16.168Z,8.83
2022-09-23T05:01:27.148Z,8.93
2022-09-23T05:04:31.440Z,8.90
2022-09-23T05:07:35.456Z,8.20
2022-09-23T05:10:38.565Z,8.52
2022-09-23T05:13:41.726Z,8.63
2022-09-23T05:16:44.908Z,8.90
2022-09-23T05:19:48.050Z,9.35
2022-09-23T05:22:55.563Z,5.63
2022-09-23T05:26:07.368Z,7.45
2022-09-23T05:29:11.337Z,6.60
2022-09-23T05:32:15.325Z,8.52
2022-09-23T05:35:18.590Z,8.48
2022-09-23T05:38:21.718Z,7.53
2022-09-23T05:41:26.375Z,7.90
2022-09-23T05:44:29.854Z,6.70
2022-09-23T05:47:33.069Z,6.35
2022-09-23T05:50:36.229Z,8.27
2022-09-23T05:53:40.732Z,7.38
2022-09-23T05:56:44.004Z,5.43
2022-09-23T05:59:47.800Z,4.67
2022-09-23T06:02:51.050Z,5.22
2022-09-23T06:05:55.286Z,4.80
2022-09-23T06:08:59.402Z,3.50
2022-09-23T06:12:04.937Z,4.35
2022-09-23T06:15:09.091Z,4.00
2022-09-23T06:18:12.928Z,4.43
2022-09-23T06:21:17.321Z,4.53
2022-09-23T06:24:23.746Z,3.10
2022-09-23T06:27:29.271Z,4.00
2022-09-23T06:30:34.823Z,4.30
2022-09-23T06:33:37.976Z,3.95
2022-09-23T06:36:45.342Z,4.28
2022-09-23T06:39:49.187Z,3.00
2022-09-23T06:42:59.715Z,3.17
2022-09-23T06:46:04.916Z,3.00
2022-09-23T06:49:08.164Z,3.83
2022-09-23T06:52:11.378Z,2.50
2022-09-23T06:55:15.061Z,2.67
2022-09-23T06:58:18.340Z,2.90
2022-09-23T07:01:22.375Z,2.40
2022-09-23T07:04:29.209Z,2.70
2022-09-23T07:07:32.654Z,2.35
2022-09-23T07:10:37.157Z,2.75
2022-09-23T07:13:42.074Z,2.70
2022-09-23T07:16:50.573Z,2.10
2022-09-23T07:19:54.977Z,2.30
2022-09-23T07:23:00.606Z,2.58
2022-09-23T07:26:04.387Z,2.72
2022-09-23T07:29:08.094Z,2.63
2022-09-23T07:32:14.550Z,2.70
2022-09-23T07:35:18.094Z,2.63
2022-09-23T07:38:24.743Z,2.03
2022-09-23T07:41:29.047Z,2.45
2022-09-23T07:44:32.881Z,2.50
2022-09-23T07:47:36.398Z,2.57
2022-09-23T07:50:40.378Z,2.30
2022-09-23T07:53:46.949Z,1.80
2022-09-23T07:56:50.161Z,2.25
2022-09-23T07:59:53.408Z,2.20
2022-09-23T08:02:56.691Z,1.70
2022-09-23T08:06:10.138Z,1.60
2022-09-23T08:09:13.833Z,1.70
2022-09-23T08:12:19.266Z,2.00
2022-09-23T08:15:28.335Z,1.80
2022-09-23T08:18:31.712Z,1.50
2022-09-23T08:21:35.198Z,1.65
2022-09-23T08:24:38.496Z,1.60
2022-09-23T08:27:41.525Z,2.08
2022-09-23T08:30:48.046Z,2.05
2022-09-23T08:33:58.695Z,1.87
2022-09-23T08:37:01.842Z,1.75
2022-09-23T08:40:05.527Z,1.73
2022-09-23T08:43:17.989Z,1.67
2022-09-23T08:47:05.195Z,1.95
2022-09-23T08:50:20.409Z,1.50
2022-09-23T08:53:38.009Z,1.77
2022-09-23T08:56:44.371Z,1.63
2022-09-23T08:59:49.299Z,2.03
2022-09-23T09:02:55.657Z,2.15
2022-09-23T09:05:59.388Z,2.23
2022-09-23T09:09:06.256Z,2.13
2022-09-23T09:12:19.444Z,2.65
2022-09-23T09:15:27.347Z,1.70
2022-09-23T09:18:34.230Z,1.67
2022-09-23T09:21:42.509Z,1.80
2022-09-23T09:24:49.216Z,1.80
2022-09-23T09:27:53.751Z,1.92
2022-09-23T09:31:36.110Z,1.80
2022-09-23T09:34:47.400Z,1.90
2022-09-23T09:37:53.239Z,2.00
2022-09-23T09:41:08.611Z,2.15
2022-09-23T09:44:44.970Z,1.80
2022-09-23T09:48:10.863Z,2.40
2022-09-23T09:51:22.307Z,2.88
2022-09-23T09:54:26.924Z,2.60
2022-09-23T09:57:36.821Z,1.92
2022-09-23T10:00:45.696Z,2.30
2022-09-23T10:03:53.195Z,1.80
2022-09-23T10:07:09.850Z,2.10
2022-09-23T10:10:33.835Z,1.40
2022-09-23T10:13:38.007Z,1.90
2022-09-23T10:16:42.418Z,2.30
2022-09-23T10:20:00.824Z,2.13
2022-09-23T10:23:14.261Z,1.75
2022-09-23T10:26:18.473Z,1.67
2022-09-23T10:29:32.900Z,2.15
2022-09-23T10:32:43.273Z,1.70
2022-09-23T10:35:57.236Z,1.30
2022-09-23T10:39:23.919Z,2.05
2022-09-23T10:43:25.535Z,1.40
2022-09-23T10:46:41.260Z,1.50
2022-09-23T10:50:03.703Z,1.92
2022-09-23T10:53:09.661Z,1.90
2022-09-23T10:56:34.980Z,1.90
2022-09-23T10:59:49.885Z,1.50
2022-09-23T11:02:58.991Z,1.30
2022-09-23T11:06:05.138Z,2.03
2022-09-23T11:09:41.235Z,2.30
2022-09-23T11:13:15.702Z,1.63
2022-09-23T11:16:39.071Z,1.70
2022-09-23T11:20:10.745Z,2.40
2022-09-23T11:23:43.149Z,2.30
2022-09-23T11:27:07.874Z,1.63
2022-09-23T11:30:16.314Z,1.58
2022-09-23T11:33:42.097Z,1.60
2022-09-23T11:36:56.391Z,3.13
2022-09-23T11:40:15.556Z,2.72
2022-09-23T11:43:21.700Z,2.30
2022-09-23T11:46:31.935Z,2.22
2022-09-23T11:49:43.188Z,2.50
2022-09-23T11:53:02.101Z,3.33
2022-09-23T11:56:33.348Z,2.40
2022-09-23T11:59:56.539Z,1.95
2022-09-23T12:03:40.562Z,2.90
2022-09-23T12:06:55.564Z,3.57
2022-09-23T12:10:06.681Z,3.35
2022-09-23T12:13:17.991Z,2.30
2022-09-23T12:16:39.025Z,2.38
2022-09-23T12:19:45.570Z,2.28
2022-09-23T12:23:04.056Z,2.07
2022-09-23T12:26:14.464Z,1.70
2022-09-23T12:29:17.957Z,2.33
2022-09-23T12:32:21.572Z,1.95
2022-09-23T12:35:35.923Z,1.55
2022-09-23T12:38:46.477Z,1.50
2022-09-23T12:42:02.421Z,1.90
2022-09-23T12:45:40.389Z,2.22
2022-09-23T12:48:47.851Z,2.53
2022-09-23T12:52:12.516Z,1.77
2022-09-23T12:55:24.286Z,1.40
2022-09-23T12:58:58.633Z,1.75
2022-09-23T13:02:24.453Z,1.50
2022-09-23T13:05:46.974Z,2.10
2022-09-23T13:08:50.432Z,1.73
2022-09-23T13:11:57.729Z,2.00
2022-09-23T13:15:06.204Z,1.70
2022-09-23T13:18:24.990Z,1.60
2022-09-23T13:21:43.158Z,2.35
2022-09-23T13:24:54.465Z,2.05
2022-09-23T13:28:01.220Z,3.00
2022-09-23T13:31:06.889Z,2.40
2022-09-23T13:34:15.305Z,2.60
2022-09-23T13:37:22.993Z,2.08
2022-09-23T13:40:29.178Z,1.60
2022-09-23T13:43:40.961Z,2.13
2022-09-23T13:46:50.168Z,2.53
2022-09-23T13:49:59.909Z,3.13
2022-09-23T13:53:11.451Z,2.03
2022-09-23T13:56:15.834Z,1.70
2022-09-23T13:59:26.805Z,1.33
2022-09-23T14:02:29.969Z,1.77
2022-09-23T14:05:35.890Z,1.50
2022-09-23T14:08:42.978Z,1.50
2022-09-23T14:11:46.140Z,1.98
2022-09-23T14:14:51.770Z,1.30
2022-09-23T14:18:06.300Z,1.90
2022-09-23T14:21:34.927Z,1.80
2022-09-23T14:24:39.049Z,1.73
2022-09-23T14:27:43.596Z,1.50
2022-09-23T14:30:48.453Z,1.30
2022-09-23T14:33:51.610Z,1.25
2022-09-23T14:37:13.338Z,1.35
2022-09-23T14:40:20.863Z,1.40
2022-09-23T14:43:29.083Z,1.55
2022-09-23T14:46:37.924Z,1.40
2022-09-23T14:50:08.448Z,1.20
2022-09-23T14:53:23.791Z,1.60
2022-09-23T14:56:27.033Z,1.30
2022-09-23T14:59:36.087Z,1.17
2022-09-23T15:02:45.322Z,1.87
2022-09-23T15:05:51.048Z,1.55
2022-09-23T15:08:55.819Z,3.03
2022-09-23T15:12:08.356Z,1.75
2022-09-23T15:15:19.684Z,1.55
2022-09-23T15:18:27.793Z,1.40
2022-09-23T15:21:42.530Z,1.73
2022-09-23T15:24:46.461Z,1.45
2022-09-23T15:28:06.248Z,1.63
2022-09-23T15:31:20.738Z,1.50
2022-09-23T15:34:23.823Z,1.73
2022-09-23T15:37:26.986Z,1.90
2022-09-23T15:40:32.793Z,1.60
2022-09-23T15:43:36.082Z,1.40
2022-09-23T15:46:40.761Z,1.70
2022-09-23T15:49:47.157Z,1.60
2022-09-23T15:52:50.299Z,1.40
2022-09-23T15:55:54.155Z,1.90
2022-09-23T15:58:57.229Z,1.60
2022-09-23T16:02:06.720Z,1.70
2022-09-23T16:05:25.009Z,1.77
2022-09-23T16:08:29.243Z,1.92
2022-09-23T16:11:32.788Z,2.13
2022-09-23T16:14:35.864Z,1.90
2022-09-23T16:17:39.047Z,2.10
2022-09-23T16:20:47.681Z,1.97
2022-09-23T16:23:51.485Z,1.80
2022-09-23T16:26:59.880Z,1.95
2022-09-23T16:30:03.242Z,1.83
2022-09-23T16:33:06.428Z,1.75
2022-09-23T16:36:17.702Z,2.20
2022-09-23T16:39:22.790Z,2.00
2022-09-23T16:42:25.899Z,2.10
2022-09-23T16:45:29.052Z,1.90
2022-09-23T16:48:32.146Z,1.75
2022-09-23T16:51:38.545Z,2.10
2022-09-23T16:54:43.348Z,2.10
2022-09-23T16:57:46.513Z,1.70
2022-09-23T17:01:09.005Z,2.03
2022-09-23T17:04:13.544Z,2.17
2022-09-23T17:07:16.896Z,2.33
2022-09-23T17:10:21.434Z,2.70
2022-09-23T17:13:25.506Z,2.85
2022-09-23T17:16:31.805Z,2.70
2022-09-23T17:19:35.676Z,3.05
2022-09-23T17:22:38.867Z,2.73
2022-09-23T17:25:48.279Z,3.30
2022-09-23T17:28:54.324Z,2.40
2022-09-23T17:31:57.988Z,2.30
2022-09-23T17:35:04.640Z,2.92
2022-09-23T17:38:07.851Z,2.53
2022-09-23T17:41:11.546Z,2.65
2022-09-23T17:44:16.149Z,2.42
2022-09-23T17:47:19.303Z,2.67
2022-09-23T17:50:22.961Z,2.88
2022-09-23T17:53:26.362Z,2.70
2022-09-23T17:56:30.025Z,3.08
2022-09-23T17:59:33.262Z,2.80
2022-09-23T18:02:36.501Z,2.63
2022-09-23T18:05:39.650Z,2.80
2022-09-23T18:08:44.536Z,2.80
2022-09-23T18:11:49.674Z,2.75
2022-09-23T18:14:52.755Z,2.83
2022-09-23T18:17:55.827Z,2.80
2022-09-23T18:21:03.116Z,2.63
2022-09-23T18:24:30.719Z,2.50
2022-09-23T18:27:34.175Z,2.55
2022-09-23T18:30:37.368Z,3.88
2022-09-23T18:33:41.080Z,6.35
2022-09-23T18:36:44.724Z,4.47
2022-09-23T18:39:48.631Z,3.40
2022-09-23T18:42:51.830Z,2.97
2022-09-23T18:45:59.270Z,3.00
2022-09-23T18:49:21.227Z,2.53
2022-09-23T18:52:26.740Z,2.40
2022-09-23T18:55:33.039Z,6.20
2022-09-23T18:58:36.545Z,3.30
2022-09-23T19:01:39.805Z,3.33
2022-09-23T19:04:43.016Z,3.30
2022-09-23T19:07:46.168Z,3.08
2022-09-23T19:10:56.247Z,3.10
2022-09-23T19:14:03.337Z,3.42
2022-09-23T19:17:06.472Z,3.08
2022-09-23T19:20:10.218Z,3.80
2022-09-23T19:23:15.875Z,3.65
2022-09-23T19:26:26.775Z,4.00
2022-09-23T19:29:30.415Z,3.67
2022-09-23T19:32:34.718Z,4.15
2022-09-23T19:35:48.576Z,3.63
2022-09-23T19:38:54.699Z,4.00
2022-09-23T19:41:59.050Z,3.63
2022-09-23T19:45:02.135Z,3.75
2022-09-23T19:48:06.514Z,4.40
2022-09-23T19:51:09.696Z,4.30
2022-09-23T19:54:19.048Z,4.65
2022-09-23T19:57:22.241Z,3.83
2022-09-23T20:00:25.555Z,4.38
2022-09-23T20:03:28.662Z,4.00
2022-09-23T20:06:34.016Z,4.10
2022-09-23T20:09:37.171Z,4.35
2022-09-23T20:12:44.045Z,4.70
2022-09-23T20:15:48.358Z,4.25
2022-09-23T20:18:55.576Z,4.40
2022-09-23T20:22:17.148Z,4.53
2022-09-23T20:25:20.321Z,4.25
2022-09-23T20:28:27.339Z,4.40
2022-09-23T20:31:31.577Z,4.22
2022-09-23T20:34:34.829Z,4.65
2022-09-23T20:37:38.014Z,4.43
2022-09-23T20:40:41.210Z,4.50
2022-09-23T20:43:44.360Z,4.47
2022-09-23T20:46:48.979Z,4.57
2022-09-23T20:49:53.713Z,4.40
2022-09-23T20:52:57.623Z,4.25
2022-09-23T20:56:00.854Z,4.32
2022-09-23T20:59:05.247Z,4.07
2022-09-23T21:02:10.896Z,4.72
2022-09-23T21:05:15.127Z,4.70
2022-09-23T21:08:18.226Z,4.40
2022-09-23T21:11:22.200Z,4.30
2022-09-23T21:14:25.710Z,4.23
2022-09-23T21:17:28.858Z,4.22
2022-09-23T21:20:32.029Z,4.07
2022-09-23T21:23:38.175Z,4.35
2022-09-23T21:26:41.399Z,4.53
2022-09-23T21:29:44.703Z,4.40
2022-09-23T21:32:47.763Z,5.20
2022-09-23T21:35:57.847Z,5.03
2022-09-23T21:39:04.468Z,4.57
2022-09-23T21:42:07.673Z,5.90
2022-09-23T21:45:11.041Z,4.60
2022-09-23T21:48:14.169Z,5.28
2022-09-23T21:51:20.282Z,4.53
2022-09-23T21:54:23.932Z,4.95
2022-09-23T21:57:30.505Z,4.03
2022-09-23T22:00:33.822Z,3.83
2022-09-23T22:03:37.582Z,4.10
2022-09-23T22:06:41.151Z,3.90
2022-09-23T22:09:46.913Z,3.95
2022-09-23T22:12:50.058Z,3.58
2022-09-23T22:15:53.244Z,3.87
2022-09-23T22:18:58.304Z,3.35
2022-09-23T22:22:03.042Z,3.72
2022-09-23T22:25:06.532Z,4.10
2022-09-23T22:28:28.486Z,3.45
2022-09-23T22:31:50.442Z,4.00
2022-09-23T22:34:53.695Z,3.92
2022-09-23T22:37:57.106Z,4.20
2022-09-23T22:41:00.325Z,3.97
2022-09-23T22:44:03.740Z,4.30
2022-09-23T22:47:07.389Z,4.40
2022-09-23T22:50:11.361Z,4.25
2022-09-23T22:53:14.561Z,4.07
2022-09-23T22:56:17.748Z,4.05
2022-09-23T22:59:20.982Z,4.47
2022-09-23T23:02:24.109Z,4.23
2022-09-23T23:05:27.532Z,4.40
2022-09-23T23:08:31.784Z,4.40
2022-09-23T23:11:35.139Z,4.68
2022-09-23T23:14:38.324Z,5.03
2022-09-23T23:17:43.225Z,5.20
2022-09-23T23:20:46.401Z,4.72
2022-09-23T23:23:52.444Z,4.95
2022-09-23T23:26:55.740Z,4.60
2022-09-23T23:29:58.886Z,4.80
2022-09-23T23:33:02.207Z,4.80
2022-09-23T23:36:06.288Z,4.68
2022-09-23T23:39:09.849Z,5.30
2022-09-23T23:42:13.935Z,5.53
2022-09-23T23:45:17.395Z,5.28
2022-09-23T23:48:23.051Z,5.17
2022-09-23T23:51:27.469Z,5.30
2022-09-23T23:54:32.205Z,5.63
2022-09-23T23:57:35.376Z,4.97
